sensor_id;sensor_type;location;lat;lon;timestamp;temperature;humidity
18229;DHT22;9239;50.932;3.142;2023-06-19T00:00:30;19.20;99.90
18229;DHT22;9239;50.932;3.142;2023-06-19T00:02:57;19.20;99.90
18229;DHT22;9239;50.932;3.142;2023-06-19T00:05:24;19.20;99.90
18229;DHT22;9239;50.932;3.142;2023-06-19T00:07:51;19.20;99.90
18229;DHT22;9239;50.932;3.142;2023-06-19T00:10:18;19.20;99.90
18229;DHT22;9239;50.932;3.142;2023-06-19T00:12:45;19.20;99.90
18229;DHT22;9239;50.932;3.142;2023-06-19T00:15:13;19.20;99.90
18229;DHT22;9239;50.932;3.142;2023-06-19T00:17:41;19.20;99.90
18229;DHT22;9239;50.932;3.142;2023-06-19T00:20:08;19.20;99.90
18229;DHT22;9239;50.932;3.142;2023-06-19T00:22:35;19.20;99.90
18229;DHT22;9239;50.932;3.142;2023-06-19T00:25:02;19.20;99.90
18229;DHT22;9239;50.932;3.142;2023-06-19T00:27:29;19.20;99.90
18229;DHT22;9239;50.932;3.142;2023-06-19T00:29:56;19.20;99.90
18229;DHT22;9239;50.932;3.142;2023-06-19T00:32:29;19.20;99.90
18229;DHT22;9239;50.932;3.142;2023-06-19T00:34:56;19.20;99.90
18229;DHT22;9239;50.932;3.142;2023-06-19T00:37:23;19.20;99.90
18229;DHT22;9239;50.932;3.142;2023-06-19T00:39:49;19.20;99.90
18229;DHT22;9239;50.932;3.142;2023-06-19T00:42:16;19.20;99.90
18229;DHT22;9239;50.932;3.142;2023-06-19T00:44:43;19.20;99.90
18229;DHT22;9239;50.932;3.142;2023-06-19T00:47:10;19.20;99.90
18229;DHT22;9239;50.932;3.142;2023-06-19T00:49:39;19.20;99.90
18229;DHT22;9239;50.932;3.142;2023-06-19T00:52:06;19.20;99.90
18229;DHT22;9239;50.932;3.142;2023-06-19T00:54:33;19.20;99.90
18229;DHT22;9239;50.932;3.142;2023-06-19T00:57:01;19.10;99.90
18229;DHT22;9239;50.932;3.142;2023-06-19T00:59:28;19.00;99.90
18229;DHT22;9239;50.932;3.142;2023-06-19T01:01:56;19.00;99.90
18229;DHT22;9239;50.932;3.142;2023-06-19T01:04:23;19.00;99.90
18229;DHT22;9239;50.932;3.142;2023-06-19T01:06:54;19.00;99.90
18229;DHT22;9239;50.932;3.142;2023-06-19T01:09:26;19.00;99.90
18229;DHT22;9239;50.932;3.142;2023-06-19T01:12:11;19.00;99.90
18229;DHT22;9239;50.932;3.142;2023-06-19T01:14:46;19.00;99.90
18229;DHT22;9239;50.932;3.142;2023-06-19T01:17:16;19.00;99.90
18229;DHT22;9239;50.932;3.142;2023-06-19T01:19:43;19.00;99.90
18229;DHT22;9239;50.932;3.142;2023-06-19T01:22:23;18.90;99.90
18229;DHT22;9239;50.932;3.142;2023-06-19T01:24:50;18.90;99.90
18229;DHT22;9239;50.932;3.142;2023-06-19T01:27:17;18.80;99.90
18229;DHT22;9239;50.932;3.142;2023-06-19T01:29:44;18.80;99.90
18229;DHT22;9239;50.932;3.142;2023-06-19T01:32:15;18.70;99.90
18229;DHT22;9239;50.932;3.142;2023-06-19T01:34:45;18.70;99.90
18229;DHT22;9239;50.932;3.142;2023-06-19T01:37:14;18.70;99.90
18229;DHT22;9239;50.932;3.142;2023-06-19T01:39:42;18.70;99.90
18229;DHT22;9239;50.932;3.142;2023-06-19T01:42:09;18.70;99.90
18229;DHT22;9239;50.932;3.142;2023-06-19T01:44:37;18.70;99.90
18229;DHT22;9239;50.932;3.142;2023-06-19T01:47:08;18.70;99.90
18229;DHT22;9239;50.932;3.142;2023-06-19T01:49:36;18.60;99.90
18229;DHT22;9239;50.932;3.142;2023-06-19T01:52:03;18.60;99.90
18229;DHT22;9239;50.932;3.142;2023-06-19T01:54:32;18.60;99.90
18229;DHT22;9239;50.932;3.142;2023-06-19T01:56:59;18.60;99.90
18229;DHT22;9239;50.932;3.142;2023-06-19T01:59:26;18.60;99.90
18229;DHT22;9239;50.932;3.142;2023-06-19T02:01:53;18.50;99.90
18229;DHT22;9239;50.932;3.142;2023-06-19T02:04:20;18.50;99.90
18229;DHT22;9239;50.932;3.142;2023-06-19T02:06:47;18.40;99.90
18229;DHT22;9239;50.932;3.142;2023-06-19T02:09:14;18.30;99.90
18229;DHT22;9239;50.932;3.142;2023-06-19T02:11:42;18.30;99.90
18229;DHT22;9239;50.932;3.142;2023-06-19T02:14:09;18.20;99.90
18229;DHT22;9239;50.932;3.142;2023-06-19T02:16:37;18.20;99.90
18229;DHT22;9239;50.932;3.142;2023-06-19T02:19:04;18.10;99.90
18229;DHT22;9239;50.932;3.142;2023-06-19T02:21:31;18.10;99.90
18229;DHT22;9239;50.932;3.142;2023-06-19T02:23:58;18.00;99.90
18229;DHT22;9239;50.932;3.142;2023-06-19T02:26:24;17.90;99.90
18229;DHT22;9239;50.932;3.142;2023-06-19T02:28:55;17.80;99.90
18229;DHT22;9239;50.932;3.142;2023-06-19T02:31:23;17.80;99.90
18229;DHT22;9239;50.932;3.142;2023-06-19T02:33:50;17.80;99.90
18229;DHT22;9239;50.932;3.142;2023-06-19T02:36:17;17.70;99.90
18229;DHT22;9239;50.932;3.142;2023-06-19T02:38:45;17.70;99.90
18229;DHT22;9239;50.932;3.142;2023-06-19T02:41:13;17.70;99.90
18229;DHT22;9239;50.932;3.142;2023-06-19T02:43:40;17.60;99.90
18229;DHT22;9239;50.932;3.142;2023-06-19T02:46:09;17.60;99.90
18229;DHT22;9239;50.932;3.142;2023-06-19T02:48:36;17.60;99.90
18229;DHT22;9239;50.932;3.142;2023-06-19T02:51:02;17.50;99.90
18229;DHT22;9239;50.932;3.142;2023-06-19T02:53:29;17.50;99.90
18229;DHT22;9239;50.932;3.142;2023-06-19T02:55:56;17.50;99.90
18229;DHT22;9239;50.932;3.142;2023-06-19T02:58:23;17.50;99.90
18229;DHT22;9239;50.932;3.142;2023-06-19T03:00:51;17.40;99.90
18229;DHT22;9239;50.932;3.142;2023-06-19T03:03:19;17.40;99.90
18229;DHT22;9239;50.932;3.142;2023-06-19T03:05:46;17.40;99.90
18229;DHT22;9239;50.932;3.142;2023-06-19T03:08:13;17.40;99.90
18229;DHT22;9239;50.932;3.142;2023-06-19T03:10:40;17.40;99.90
18229;DHT22;9239;50.932;3.142;2023-06-19T03:13:06;17.30;99.90
18229;DHT22;9239;50.932;3.142;2023-06-19T03:15:33;17.30;99.90
18229;DHT22;9239;50.932;3.142;2023-06-19T03:18:00;17.30;99.90
18229;DHT22;9239;50.932;3.142;2023-06-19T03:20:31;17.30;99.90
18229;DHT22;9239;50.932;3.142;2023-06-19T03:22:58;17.30;99.90
18229;DHT22;9239;50.932;3.142;2023-06-19T03:25:25;17.30;99.90
18229;DHT22;9239;50.932;3.142;2023-06-19T03:27:52;17.40;99.90
18229;DHT22;9239;50.932;3.142;2023-06-19T03:30:19;17.40;99.90
18229;DHT22;9239;50.932;3.142;2023-06-19T03:32:46;17.30;99.90
18229;DHT22;9239;50.932;3.142;2023-06-19T03:35:13;17.30;99.90
18229;DHT22;9239;50.932;3.142;2023-06-19T03:37:41;17.30;99.90
18229;DHT22;9239;50.932;3.142;2023-06-19T03:40:09;17.30;99.90
18229;DHT22;9239;50.932;3.142;2023-06-19T03:42:39;17.20;99.90
18229;DHT22;9239;50.932;3.142;2023-06-19T03:45:07;17.20;99.90
18229;DHT22;9239;50.932;3.142;2023-06-19T03:47:34;17.20;99.90
18229;DHT22;9239;50.932;3.142;2023-06-19T03:50:01;17.20;99.90
18229;DHT22;9239;50.932;3.142;2023-06-19T03:52:28;17.10;99.90
18229;DHT22;9239;50.932;3.142;2023-06-19T03:54:56;17.10;99.90
18229;DHT22;9239;50.932;3.142;2023-06-19T03:57:23;17.10;99.90
18229;DHT22;9239;50.932;3.142;2023-06-19T03:59:50;17.10;99.90
18229;DHT22;9239;50.932;3.142;2023-06-19T04:02:19;17.10;99.90
18229;DHT22;9239;50.932;3.142;2023-06-19T04:04:46;17.10;99.90
18229;DHT22;9239;50.932;3.142;2023-06-19T04:07:13;17.10;99.90
18229;DHT22;9239;50.932;3.142;2023-06-19T04:09:40;17.10;99.90
18229;DHT22;9239;50.932;3.142;2023-06-19T04:12:09;17.20;99.90
18229;DHT22;9239;50.932;3.142;2023-06-19T04:14:36;17.20;99.90
18229;DHT22;9239;50.932;3.142;2023-06-19T04:17:03;17.20;99.90
18229;DHT22;9239;50.932;3.142;2023-06-19T04:19:30;17.20;99.90
18229;DHT22;9239;50.932;3.142;2023-06-19T04:21:57;17.30;99.90
18229;DHT22;9239;50.932;3.142;2023-06-19T04:24:24;17.20;99.90
18229;DHT22;9239;50.932;3.142;2023-06-19T04:26:51;17.20;99.90
18229;DHT22;9239;50.932;3.142;2023-06-19T04:29:19;17.30;99.90
18229;DHT22;9239;50.932;3.142;2023-06-19T04:31:46;17.30;99.90
18229;DHT22;9239;50.932;3.142;2023-06-19T04:34:16;17.30;99.90
18229;DHT22;9239;50.932;3.142;2023-06-19T04:36:43;17.30;99.90
18229;DHT22;9239;50.932;3.142;2023-06-19T04:39:10;17.30;99.90
18229;DHT22;9239;50.932;3.142;2023-06-19T04:41:37;17.40;99.90
18229;DHT22;9239;50.932;3.142;2023-06-19T04:44:06;17.40;99.90
18229;DHT22;9239;50.932;3.142;2023-06-19T04:46:35;17.40;99.90
18229;DHT22;9239;50.932;3.142;2023-06-19T04:49:03;17.40;99.90
18229;DHT22;9239;50.932;3.142;2023-06-19T04:51:30;17.40;99.90
18229;DHT22;9239;50.932;3.142;2023-06-19T04:53:58;17.30;99.90
18229;DHT22;9239;50.932;3.142;2023-06-19T04:56:25;17.40;99.90
18229;DHT22;9239;50.932;3.142;2023-06-19T04:58:52;17.40;99.90
18229;DHT22;9239;50.932;3.142;2023-06-19T05:01:23;17.50;99.90
18229;DHT22;9239;50.932;3.142;2023-06-19T05:03:55;17.50;99.90
18229;DHT22;9239;50.932;3.142;2023-06-19T05:06:22;17.60;99.90
18229;DHT22;9239;50.932;3.142;2023-06-19T05:08:49;17.60;99.90
18229;DHT22;9239;50.932;3.142;2023-06-19T05:11:16;17.70;99.90
18229;DHT22;9239;50.932;3.142;2023-06-19T05:13:43;17.60;99.90
18229;DHT22;9239;50.932;3.142;2023-06-19T05:16:10;17.70;99.90
18229;DHT22;9239;50.932;3.142;2023-06-19T05:18:41;17.70;99.90
18229;DHT22;9239;50.932;3.142;2023-06-19T05:21:10;17.70;99.90
18229;DHT22;9239;50.932;3.142;2023-06-19T05:23:38;17.70;99.90
18229;DHT22;9239;50.932;3.142;2023-06-19T05:26:05;17.70;99.90
18229;DHT22;9239;50.932;3.142;2023-06-19T05:28:32;17.70;99.90
18229;DHT22;9239;50.932;3.142;2023-06-19T05:30:59;17.70;99.90
18229;DHT22;9239;50.932;3.142;2023-06-19T05:33:26;17.70;99.90
18229;DHT22;9239;50.932;3.142;2023-06-19T05:35:53;17.80;99.90
18229;DHT22;9239;50.932;3.142;2023-06-19T05:38:21;17.70;99.90
18229;DHT22;9239;50.932;3.142;2023-06-19T05:40:51;17.80;99.90
18229;DHT22;9239;50.932;3.142;2023-06-19T05:43:18;17.80;99.90
18229;DHT22;9239;50.932;3.142;2023-06-19T05:45:45;17.80;99.90
18229;DHT22;9239;50.932;3.142;2023-06-19T05:48:12;17.90;99.90
18229;DHT22;9239;50.932;3.142;2023-06-19T05:50:39;17.90;99.90
18229;DHT22;9239;50.932;3.142;2023-06-19T05:53:07;18.00;99.90
18229;DHT22;9239;50.932;3.142;2023-06-19T05:55:35;18.00;99.90
18229;DHT22;9239;50.932;3.142;2023-06-19T05:58:02;18.10;99.90
18229;DHT22;9239;50.932;3.142;2023-06-19T06:00:30;18.10;99.90
18229;DHT22;9239;50.932;3.142;2023-06-19T06:02:57;18.10;99.90
18229;DHT22;9239;50.932;3.142;2023-06-19T06:05:25;18.20;99.90
18229;DHT22;9239;50.932;3.142;2023-06-19T06:07:52;18.20;99.90
18229;DHT22;9239;50.932;3.142;2023-06-19T06:10:19;18.20;99.90
18229;DHT22;9239;50.932;3.142;2023-06-19T06:12:48;18.20;99.90
18229;DHT22;9239;50.932;3.142;2023-06-19T06:15:15;18.30;99.90
18229;DHT22;9239;50.932;3.142;2023-06-19T06:17:43;18.40;99.90
18229;DHT22;9239;50.932;3.142;2023-06-19T06:20:10;18.40;99.90
18229;DHT22;9239;50.932;3.142;2023-06-19T06:22:38;18.50;99.90
18229;DHT22;9239;50.932;3.142;2023-06-19T06:25:05;18.50;99.90
18229;DHT22;9239;50.932;3.142;2023-06-19T06:27:33;18.50;99.90
18229;DHT22;9239;50.932;3.142;2023-06-19T06:30:03;18.50;99.90
18229;DHT22;9239;50.932;3.142;2023-06-19T06:32:30;18.60;99.90
18229;DHT22;9239;50.932;3.142;2023-06-19T06:34:57;18.70;99.90
18229;DHT22;9239;50.932;3.142;2023-06-19T06:37:25;18.70;99.90
18229;DHT22;9239;50.932;3.142;2023-06-19T06:39:52;18.70;99.90
18229;DHT22;9239;50.932;3.142;2023-06-19T06:42:19;18.70;99.90
18229;DHT22;9239;50.932;3.142;2023-06-19T06:44:46;18.70;99.90
18229;DHT22;9239;50.932;3.142;2023-06-19T06:47:14;18.70;99.90
18229;DHT22;9239;50.932;3.142;2023-06-19T06:49:41;18.80;99.90
18229;DHT22;9239;50.932;3.142;2023-06-19T06:52:08;18.80;99.90
18229;DHT22;9239;50.932;3.142;2023-06-19T06:54:35;18.90;99.90
18229;DHT22;9239;50.932;3.142;2023-06-19T06:57:03;19.00;99.90
18229;DHT22;9239;50.932;3.142;2023-06-19T06:59:31;19.00;99.90
18229;DHT22;9239;50.932;3.142;2023-06-19T07:01:57;19.10;99.90
18229;DHT22;9239;50.932;3.142;2023-06-19T07:04:26;19.20;99.90
18229;DHT22;9239;50.932;3.142;2023-06-19T07:06:53;19.20;99.90
18229;DHT22;9239;50.932;3.142;2023-06-19T07:09:20;19.30;99.90
18229;DHT22;9239;50.932;3.142;2023-06-19T07:11:47;19.30;99.90
18229;DHT22;9239;50.932;3.142;2023-06-19T07:14:14;19.40;99.90
18229;DHT22;9239;50.932;3.142;2023-06-19T07:16:43;19.50;99.90
18229;DHT22;9239;50.932;3.142;2023-06-19T07:19:10;19.40;99.90
18229;DHT22;9239;50.932;3.142;2023-06-19T07:21:39;19.40;99.90
18229;DHT22;9239;50.932;3.142;2023-06-19T07:24:07;19.40;99.90
18229;DHT22;9239;50.932;3.142;2023-06-19T07:26:33;19.60;99.90
18229;DHT22;9239;50.932;3.142;2023-06-19T07:29:01;19.70;99.90
18229;DHT22;9239;50.932;3.142;2023-06-19T07:31:28;19.90;99.90
18229;DHT22;9239;50.932;3.142;2023-06-19T07:33:54;19.90;99.90
18229;DHT22;9239;50.932;3.142;2023-06-19T07:36:21;19.90;99.90
18229;DHT22;9239;50.932;3.142;2023-06-19T07:38:51;20.00;99.90
18229;DHT22;9239;50.932;3.142;2023-06-19T07:41:18;20.10;99.90
18229;DHT22;9239;50.932;3.142;2023-06-19T07:43:45;20.40;99.90
18229;DHT22;9239;50.932;3.142;2023-06-19T07:46:12;20.60;99.90
18229;DHT22;9239;50.932;3.142;2023-06-19T07:48:40;20.80;99.90
18229;DHT22;9239;50.932;3.142;2023-06-19T07:51:07;20.90;99.90
18229;DHT22;9239;50.932;3.142;2023-06-19T07:53:34;20.70;99.90
18229;DHT22;9239;50.932;3.142;2023-06-19T07:56:03;20.60;99.90
18229;DHT22;9239;50.932;3.142;2023-06-19T07:58:30;20.60;99.90
18229;DHT22;9239;50.932;3.142;2023-06-19T08:00:56;20.50;99.90
18229;DHT22;9239;50.932;3.142;2023-06-19T08:03:23;20.40;99.90
18229;DHT22;9239;50.932;3.142;2023-06-19T08:05:50;20.30;99.90
18229;DHT22;9239;50.932;3.142;2023-06-19T08:08:18;20.30;99.90
18229;DHT22;9239;50.932;3.142;2023-06-19T08:10:45;20.30;99.90
18229;DHT22;9239;50.932;3.142;2023-06-19T08:13:13;20.40;99.90
18229;DHT22;9239;50.932;3.142;2023-06-19T08:15:40;20.50;99.90
18229;DHT22;9239;50.932;3.142;2023-06-19T08:18:07;20.50;99.90
18229;DHT22;9239;50.932;3.142;2023-06-19T08:20:34;20.60;99.90
18229;DHT22;9239;50.932;3.142;2023-06-19T08:23:01;20.70;99.90
18229;DHT22;9239;50.932;3.142;2023-06-19T08:25:28;20.80;99.90
18229;DHT22;9239;50.932;3.142;2023-06-19T08:27:55;20.90;99.90
18229;DHT22;9239;50.932;3.142;2023-06-19T08:30:23;20.80;99.90
18229;DHT22;9239;50.932;3.142;2023-06-19T08:32:50;20.70;99.90
18229;DHT22;9239;50.932;3.142;2023-06-19T08:35:17;20.70;99.90
18229;DHT22;9239;50.932;3.142;2023-06-19T08:37:44;20.70;99.90
18229;DHT22;9239;50.932;3.142;2023-06-19T08:40:12;20.80;99.90
18229;DHT22;9239;50.932;3.142;2023-06-19T08:42:39;21.00;99.90
18229;DHT22;9239;50.932;3.142;2023-06-19T08:45:08;21.00;99.90
18229;DHT22;9239;50.932;3.142;2023-06-19T08:47:37;21.20;99.90
18229;DHT22;9239;50.932;3.142;2023-06-19T08:50:04;21.20;99.90
18229;DHT22;9239;50.932;3.142;2023-06-19T08:52:31;21.10;99.90
18229;DHT22;9239;50.932;3.142;2023-06-19T08:54:58;21.00;99.90
18229;DHT22;9239;50.932;3.142;2023-06-19T08:57:37;21.10;99.90
18229;DHT22;9239;50.932;3.142;2023-06-19T09:00:05;21.30;99.90
18229;DHT22;9239;50.932;3.142;2023-06-19T09:02:41;21.50;99.90
18229;DHT22;9239;50.932;3.142;2023-06-19T09:05:11;21.50;99.90
18229;DHT22;9239;50.932;3.142;2023-06-19T09:07:39;21.60;99.90
18229;DHT22;9239;50.932;3.142;2023-06-19T09:10:13;21.60;99.90
18229;DHT22;9239;50.932;3.142;2023-06-19T09:12:42;21.60;99.90
18229;DHT22;9239;50.932;3.142;2023-06-19T09:15:12;21.60;99.90
18229;DHT22;9239;50.932;3.142;2023-06-19T09:17:41;21.70;99.90
18229;DHT22;9239;50.932;3.142;2023-06-19T09:20:09;21.70;99.90
18229;DHT22;9239;50.932;3.142;2023-06-19T09:22:37;21.70;99.90
18229;DHT22;9239;50.932;3.142;2023-06-19T09:25:05;21.70;99.90
18229;DHT22;9239;50.932;3.142;2023-06-19T09:27:35;21.70;99.90
18229;DHT22;9239;50.932;3.142;2023-06-19T09:30:04;21.60;99.90
18229;DHT22;9239;50.932;3.142;2023-06-19T09:32:31;21.70;99.90
18229;DHT22;9239;50.932;3.142;2023-06-19T09:35:00;21.80;99.90
18229;DHT22;9239;50.932;3.142;2023-06-19T09:37:29;22.10;99.90
18229;DHT22;9239;50.932;3.142;2023-06-19T09:39:58;22.20;99.90
18229;DHT22;9239;50.932;3.142;2023-06-19T09:42:27;22.20;99.90
18229;DHT22;9239;50.932;3.142;2023-06-19T09:44:59;22.30;99.90
18229;DHT22;9239;50.932;3.142;2023-06-19T09:47:31;22.30;99.90
18229;DHT22;9239;50.932;3.142;2023-06-19T09:50:01;22.40;99.90
18229;DHT22;9239;50.932;3.142;2023-06-19T09:52:28;22.50;99.90
18229;DHT22;9239;50.932;3.142;2023-06-19T09:54:56;22.70;99.90
18229;DHT22;9239;50.932;3.142;2023-06-19T09:57:23;22.70;99.90
18229;DHT22;9239;50.932;3.142;2023-06-19T09:59:53;22.70;99.90
18229;DHT22;9239;50.932;3.142;2023-06-19T10:02:22;22.70;99.90
18229;DHT22;9239;50.932;3.142;2023-06-19T10:04:52;22.60;99.90
18229;DHT22;9239;50.932;3.142;2023-06-19T10:07:23;22.50;99.90
18229;DHT22;9239;50.932;3.142;2023-06-19T10:09:57;22.50;99.90
18229;DHT22;9239;50.932;3.142;2023-06-19T10:12:37;22.60;99.90
18229;DHT22;9239;50.932;3.142;2023-06-19T10:15:16;22.60;99.90
18229;DHT22;9239;50.932;3.142;2023-06-19T10:17:47;22.70;99.90
18229;DHT22;9239;50.932;3.142;2023-06-19T10:20:22;22.80;99.90
18229;DHT22;9239;50.932;3.142;2023-06-19T10:22:57;22.90;99.90
18229;DHT22;9239;50.932;3.142;2023-06-19T10:25:27;23.10;99.90
18229;DHT22;9239;50.932;3.142;2023-06-19T10:27:54;23.10;99.90
18229;DHT22;9239;50.932;3.142;2023-06-19T10:30:21;23.10;99.90
18229;DHT22;9239;50.932;3.142;2023-06-19T10:32:48;23.20;99.90
18229;DHT22;9239;50.932;3.142;2023-06-19T10:35:17;23.30;99.90
18229;DHT22;9239;50.932;3.142;2023-06-19T10:37:47;23.30;99.90
18229;DHT22;9239;50.932;3.142;2023-06-19T10:40:16;23.20;99.90
18229;DHT22;9239;50.932;3.142;2023-06-19T10:42:43;23.20;99.90
18229;DHT22;9239;50.932;3.142;2023-06-19T10:45:12;23.20;99.90
18229;DHT22;9239;50.932;3.142;2023-06-19T10:47:42;23.30;99.90
18229;DHT22;9239;50.932;3.142;2023-06-19T10:50:13;23.30;99.90
18229;DHT22;9239;50.932;3.142;2023-06-19T10:52:41;23.40;99.90
18229;DHT22;9239;50.932;3.142;2023-06-19T10:55:11;23.40;99.90
18229;DHT22;9239;50.932;3.142;2023-06-19T10:57:41;23.50;99.90
18229;DHT22;9239;50.932;3.142;2023-06-19T11:00:11;23.50;99.90
18229;DHT22;9239;50.932;3.142;2023-06-19T11:02:39;23.50;99.90
18229;DHT22;9239;50.932;3.142;2023-06-19T11:05:09;23.60;99.90
18229;DHT22;9239;50.932;3.142;2023-06-19T11:07:36;23.50;99.90
18229;DHT22;9239;50.932;3.142;2023-06-19T11:10:04;23.60;99.90
18229;DHT22;9239;50.932;3.142;2023-06-19T11:12:32;23.70;99.90
18229;DHT22;9239;50.932;3.142;2023-06-19T11:15:04;23.80;99.90
18229;DHT22;9239;50.932;3.142;2023-06-19T11:17:32;23.70;99.90
18229;DHT22;9239;50.932;3.142;2023-06-19T11:19:58;23.80;99.90
18229;DHT22;9239;50.932;3.142;2023-06-19T11:22:36;23.90;99.90
18229;DHT22;9239;50.932;3.142;2023-06-19T11:25:05;24.00;99.90
18229;DHT22;9239;50.932;3.142;2023-06-19T11:27:32;24.00;99.90
18229;DHT22;9239;50.932;3.142;2023-06-19T11:30:02;24.00;99.90
18229;DHT22;9239;50.932;3.142;2023-06-19T11:32:31;24.20;99.90
18229;DHT22;9239;50.932;3.142;2023-06-19T11:35:05;24.20;99.90
18229;DHT22;9239;50.932;3.142;2023-06-19T11:37:33;24.20;99.90
18229;DHT22;9239;50.932;3.142;2023-06-19T11:40:00;24.20;99.90
18229;DHT22;9239;50.932;3.142;2023-06-19T11:42:29;24.20;99.90
18229;DHT22;9239;50.932;3.142;2023-06-19T11:45:00;24.40;99.90
18229;DHT22;9239;50.932;3.142;2023-06-19T11:47:31;24.50;99.90
18229;DHT22;9239;50.932;3.142;2023-06-19T11:49:58;24.40;99.90
18229;DHT22;9239;50.932;3.142;2023-06-19T11:52:26;24.50;99.90
18229;DHT22;9239;50.932;3.142;2023-06-19T11:54:53;24.50;99.90
18229;DHT22;9239;50.932;3.142;2023-06-19T11:57:20;24.50;99.90
18229;DHT22;9239;50.932;3.142;2023-06-19T11:59:47;24.50;99.90
18229;DHT22;9239;50.932;3.142;2023-06-19T12:02:14;24.60;99.90
18229;DHT22;9239;50.932;3.142;2023-06-19T12:04:42;24.60;99.90
18229;DHT22;9239;50.932;3.142;2023-06-19T12:07:09;24.80;99.90
18229;DHT22;9239;50.932;3.142;2023-06-19T12:09:37;24.90;99.90
18229;DHT22;9239;50.932;3.142;2023-06-19T12:12:06;24.90;99.90
18229;DHT22;9239;50.932;3.142;2023-06-19T12:14:33;25.00;99.90
18229;DHT22;9239;50.932;3.142;2023-06-19T12:17:00;25.10;99.90
18229;DHT22;9239;50.932;3.142;2023-06-19T12:19:27;25.00;99.90
18229;DHT22;9239;50.932;3.142;2023-06-19T12:21:55;25.10;99.90
18229;DHT22;9239;50.932;3.142;2023-06-19T12:24:23;25.20;99.90
18229;DHT22;9239;50.932;3.142;2023-06-19T12:26:50;25.30;99.90
18229;DHT22;9239;50.932;3.142;2023-06-19T12:29:17;25.20;99.90
18229;DHT22;9239;50.932;3.142;2023-06-19T12:31:46;25.40;99.90
18229;DHT22;9239;50.932;3.142;2023-06-19T12:34:13;25.50;99.90
18229;DHT22;9239;50.932;3.142;2023-06-19T12:36:40;25.20;99.90
18229;DHT22;9239;50.932;3.142;2023-06-19T12:39:09;25.30;99.90
18229;DHT22;9239;50.932;3.142;2023-06-19T12:41:41;25.30;99.90
18229;DHT22;9239;50.932;3.142;2023-06-19T12:44:08;25.20;99.90
18229;DHT22;9239;50.932;3.142;2023-06-19T12:46:35;25.40;99.90
18229;DHT22;9239;50.932;3.142;2023-06-19T12:49:02;25.40;99.90
18229;DHT22;9239;50.932;3.142;2023-06-19T12:51:29;25.40;99.90
18229;DHT22;9239;50.932;3.142;2023-06-19T12:53:56;25.60;99.90
18229;DHT22;9239;50.932;3.142;2023-06-19T12:56:24;25.90;99.90
18229;DHT22;9239;50.932;3.142;2023-06-19T12:58:51;26.10;99.90
18229;DHT22;9239;50.932;3.142;2023-06-19T13:01:18;26.00;99.90
18229;DHT22;9239;50.932;3.142;2023-06-19T13:03:45;26.00;99.90
18229;DHT22;9239;50.932;3.142;2023-06-19T13:06:12;25.90;99.90
18229;DHT22;9239;50.932;3.142;2023-06-19T13:08:39;25.80;99.90
18229;DHT22;9239;50.932;3.142;2023-06-19T13:11:06;25.70;99.90
18229;DHT22;9239;50.932;3.142;2023-06-19T13:13:35;25.70;99.90
18229;DHT22;9239;50.932;3.142;2023-06-19T13:16:02;25.80;99.90
18229;DHT22;9239;50.932;3.142;2023-06-19T13:18:29;25.80;99.90
18229;DHT22;9239;50.932;3.142;2023-06-19T13:20:56;25.80;99.90
18229;DHT22;9239;50.932;3.142;2023-06-19T13:23:23;26.10;99.90
18229;DHT22;9239;50.932;3.142;2023-06-19T13:25:50;26.30;99.90
18229;DHT22;9239;50.932;3.142;2023-06-19T13:28:16;26.20;99.90
18229;DHT22;9239;50.932;3.142;2023-06-19T13:30:45;26.30;99.90
18229;DHT22;9239;50.932;3.142;2023-06-19T13:33:12;26.30;99.90
18229;DHT22;9239;50.932;3.142;2023-06-19T13:35:39;26.50;99.90
18229;DHT22;9239;50.932;3.142;2023-06-19T13:38:06;26.40;99.90
18229;DHT22;9239;50.932;3.142;2023-06-19T13:40:33;26.70;99.90
18229;DHT22;9239;50.932;3.142;2023-06-19T13:43:00;26.60;99.90
18229;DHT22;9239;50.932;3.142;2023-06-19T13:45:28;26.40;99.90
18229;DHT22;9239;50.932;3.142;2023-06-19T13:47:57;26.20;99.90
18229;DHT22;9239;50.932;3.142;2023-06-19T13:50:24;26.00;99.90
18229;DHT22;9239;50.932;3.142;2023-06-19T13:52:51;26.10;99.90
18229;DHT22;9239;50.932;3.142;2023-06-19T13:55:20;26.30;99.90
18229;DHT22;9239;50.932;3.142;2023-06-19T13:57:48;26.40;99.90
18229;DHT22;9239;50.932;3.142;2023-06-19T14:00:15;26.40;99.90
18229;DHT22;9239;50.932;3.142;2023-06-19T14:02:42;26.50;99.90
18229;DHT22;9239;50.932;3.142;2023-06-19T14:05:11;26.70;99.90
18229;DHT22;9239;50.932;3.142;2023-06-19T14:07:40;26.70;99.90
18229;DHT22;9239;50.932;3.142;2023-06-19T14:10:08;26.70;99.90
18229;DHT22;9239;50.932;3.142;2023-06-19T14:12:35;26.70;99.90
18229;DHT22;9239;50.932;3.142;2023-06-19T14:15:02;26.80;99.90
18229;DHT22;9239;50.932;3.142;2023-06-19T14:17:29;26.60;99.90
18229;DHT22;9239;50.932;3.142;2023-06-19T14:19:56;26.50;99.90
18229;DHT22;9239;50.932;3.142;2023-06-19T14:22:24;26.40;99.90
18229;DHT22;9239;50.932;3.142;2023-06-19T14:24:51;26.30;99.90
18229;DHT22;9239;50.932;3.142;2023-06-19T14:27:25;26.10;99.90
18229;DHT22;9239;50.932;3.142;2023-06-19T14:29:52;26.00;99.90
18229;DHT22;9239;50.932;3.142;2023-06-19T14:32:20;25.90;99.90
18229;DHT22;9239;50.932;3.142;2023-06-19T14:34:47;25.80;99.90
18229;DHT22;9239;50.932;3.142;2023-06-19T14:37:14;26.00;99.90
18229;DHT22;9239;50.932;3.142;2023-06-19T14:39:42;26.00;99.90
18229;DHT22;9239;50.932;3.142;2023-06-19T14:42:09;26.10;99.90
18229;DHT22;9239;50.932;3.142;2023-06-19T14:44:36;26.20;99.90
18229;DHT22;9239;50.932;3.142;2023-06-19T14:47:04;26.60;99.90
18229;DHT22;9239;50.932;3.142;2023-06-19T14:49:31;26.70;99.90
18229;DHT22;9239;50.932;3.142;2023-06-19T14:51:58;26.70;99.90
18229;DHT22;9239;50.932;3.142;2023-06-19T14:54:25;26.80;99.90
18229;DHT22;9239;50.932;3.142;2023-06-19T14:56:53;26.90;99.90
18229;DHT22;9239;50.932;3.142;2023-06-19T14:59:20;26.80;99.90
18229;DHT22;9239;50.932;3.142;2023-06-19T15:01:47;26.90;99.90
18229;DHT22;9239;50.932;3.142;2023-06-19T15:04:14;27.00;99.90
18229;DHT22;9239;50.932;3.142;2023-06-19T15:06:41;26.80;99.90
18229;DHT22;9239;50.932;3.142;2023-06-19T15:09:08;26.70;99.90
18229;DHT22;9239;50.932;3.142;2023-06-19T15:11:35;26.70;99.90
18229;DHT22;9239;50.932;3.142;2023-06-19T15:14:04;26.70;99.90
18229;DHT22;9239;50.932;3.142;2023-06-19T15:16:31;26.70;99.90
18229;DHT22;9239;50.932;3.142;2023-06-19T15:18:58;26.80;99.90
18229;DHT22;9239;50.932;3.142;2023-06-19T15:21:25;27.00;99.90
18229;DHT22;9239;50.932;3.142;2023-06-19T15:23:54;27.00;99.90
18229;DHT22;9239;50.932;3.142;2023-06-19T15:26:21;27.00;99.90
18229;DHT22;9239;50.932;3.142;2023-06-19T15:28:48;26.90;99.90
18229;DHT22;9239;50.932;3.142;2023-06-19T15:31:20;26.70;99.90
18229;DHT22;9239;50.932;3.142;2023-06-19T15:33:47;26.50;99.90
18229;DHT22;9239;50.932;3.142;2023-06-19T15:36:14;26.50;99.90
18229;DHT22;9239;50.932;3.142;2023-06-19T15:38:41;26.50;99.90
18229;DHT22;9239;50.932;3.142;2023-06-19T15:41:08;26.40;99.90
18229;DHT22;9239;50.932;3.142;2023-06-19T15:43:35;26.30;99.90
18229;DHT22;9239;50.932;3.142;2023-06-19T15:46:02;26.30;99.90
18229;DHT22;9239;50.932;3.142;2023-06-19T15:48:33;26.20;99.90